Portada
METAR-TAF:

METAR-TAF

Aeroports :

Talara, Perú

latitud: 04-34S, longitud: 081-15W, altitud: 85 m

Observació

L'informe es va fer fa 1 hora i 5 minuts, a les 01:00 UTC
Vent 9 kt del Sud/Sud-Est
Temperatura 24°C
Humitat 69%
Pressió 1010 hPa
Visibilitat 10 km o més
Cel cobert a una alçada de 2500 ft

METAR: SPYL 290100Z 16009KT 9999 OVC025 24/18 Q1010 RMK PP000

Hora: 21:05 (02:05 UTC)

Pronòstic

L'informe es va fer fa 3 hores i 0 minuts, a les 23:05 UTC
Pronòstic vàlid del 29 a les 00 UTC al 29 a les 24 UTC
Vent 10 kt del Sud/Sud-Oest
Visibilitat 10 km o més
sense núvols per sota de 1500 mi sense presència de cumulonimbus.
Evolucionant progressivament
l' 29 a les 05 UTC al 29 a les 09 UTC
Vent 14 kt del Sud
Evolucionant progressivament
l' 29 a les 09 UTC al 29 a les 12 UTC
Vent 4 kt del Sud
Cel ennuvolat a una alçada de 3000 ft

TAF: SPYL 282305Z 2900/2924 20010KT CAVOK TX33/2919Z TN20/2911Z BECMG 2905/2909 17014KT BECMG 2909/2912 19004KT BKN030

Observacions i pronòstics meteorològics de més de 4000 aeroports (METAR i TAF).

Les estacions disponibles són els punts grocs i vermells al mapa.

Posi el ratolí al punt desitjat per veure el nom de l'estació.

Feu clic per veure les observacions i els pronòstics meteorològics.

Per canviar el mapa: feu clic els botons verds amb una creu de color negre per apropar; al botó verd amb un guió per allunyar la imatge; o en les fletxes verdes per a mapes adjacents.


METAR-TAF: